createdAt,value
2022-08-09T00:04:08.534Z,6.60
2022-08-09T00:55:02.921Z,10.02
2022-08-09T00:57:50.468Z,14.00
2022-08-09T01:00:45.865Z,12.43
2022-08-09T01:03:46.282Z,8.57
2022-08-09T01:07:01.951Z,7.05
2022-08-09T01:10:03.706Z,7.97
2022-08-09T01:13:41.990Z,7.17
2022-08-09T01:16:47.210Z,11.15
2022-08-09T01:20:02.748Z,7.32
2022-08-09T01:25:56.356Z,5.47
2022-08-09T01:28:44.991Z,11.98
2022-08-09T01:32:31.030Z,7.45
2022-08-09T01:34:39.372Z,9.63
2022-08-09T01:38:05.821Z,11.48
2022-08-09T01:41:03.119Z,10.18
2022-08-09T01:43:55.780Z,10.40
2022-08-09T01:46:47.053Z,14.73
2022-08-09T01:49:38.999Z,8.32
2022-08-09T01:52:26.139Z,11.45
2022-08-09T01:55:13.900Z,12.73
2022-08-09T01:58:00.502Z,7.50
2022-08-09T02:00:50.599Z,9.48
2022-08-09T02:03:37.342Z,13.10
2022-08-09T02:06:45.382Z,12.52
2022-08-09T02:09:48.852Z,8.63
2022-08-09T02:12:46.139Z,8.45
2022-08-09T02:15:36.337Z,8.88
2022-08-09T02:18:36.497Z,7.65
2022-08-09T02:21:23.310Z,9.50
2022-08-09T02:24:11.587Z,8.70
2022-08-09T02:27:13.171Z,8.32
2022-08-09T02:30:06.595Z,7.07
2022-08-09T02:32:53.907Z,8.68
2022-08-09T02:36:02.614Z,10.20
2022-08-09T02:38:51.807Z,14.50
2022-08-09T02:41:44.861Z,12.90
2022-08-09T02:44:35.550Z,11.82
2022-08-09T02:47:22.549Z,9.15
2022-08-09T02:50:14.075Z,10.90
2022-08-09T02:53:04.115Z,5.78
2022-08-09T02:55:58.569Z,10.57
2022-08-09T03:02:06.429Z,10.32
2022-08-09T03:04:54.894Z,7.00
2022-08-09T03:07:44.477Z,13.73
2022-08-09T03:10:46.137Z,14.88
2022-08-09T03:14:16.119Z,11.85
2022-08-09T03:17:07.291Z,9.73
2022-08-09T03:20:10.829Z,10.80
2022-08-09T03:23:15.191Z,11.20
2022-08-09T03:28:59.872Z,9.40
2022-08-09T03:32:00.278Z,13.73
2022-08-09T03:34:55.888Z,16.17
2022-08-09T03:37:55.799Z,13.50
2022-08-09T03:40:55.052Z,8.70
2022-08-09T03:44:03.265Z,12.40
2022-08-09T03:46:59.961Z,11.05
2022-08-09T03:49:58.446Z,12.60
2022-08-09T03:52:46.138Z,15.55
2022-08-09T03:55:47.771Z,11.63
2022-08-09T04:01:28.021Z,11.23
2022-08-09T04:04:15.825Z,13.77
2022-08-09T04:07:03.962Z,12.05
2022-08-09T04:09:54.816Z,10.00
2022-08-09T04:12:53.645Z,13.48
2022-08-09T04:16:20.986Z,9.85
2022-08-09T04:18:51.078Z,11.18
2022-08-09T04:21:40.093Z,10.60
2022-08-09T04:24:27.251Z,13.32
2022-08-09T04:27:14.495Z,12.48
2022-08-09T04:30:02.409Z,11.57
2022-08-09T04:32:52.838Z,14.85
2022-08-09T04:35:42.615Z,17.02
2022-08-09T04:39:41.077Z,12.68
2022-08-09T04:42:31.781Z,9.93
2022-08-09T04:45:22.688Z,9.80
2022-08-09T04:48:10.719Z,13.02
2022-08-09T04:50:58.002Z,10.05
2022-08-09T04:53:45.163Z,12.15
2022-08-09T04:56:35.660Z,12.00
2022-08-09T04:59:26.674Z,10.38
2022-08-09T05:02:27.324Z,14.70
2022-08-09T05:05:14.630Z,11.20
2022-08-09T05:08:19.599Z,10.07
2022-08-09T05:11:15.874Z,13.00
2022-08-09T05:14:07.887Z,11.50
2022-08-09T05:17:02.736Z,14.45
2022-08-09T05:19:50.782Z,8.90
2022-08-09T05:23:55.428Z,8.65
2022-08-09T05:25:54.163Z,10.38
2022-08-09T05:28:46.782Z,10.77
2022-08-09T05:31:44.187Z,12.98
2022-08-09T05:34:38.724Z,8.80
2022-08-09T05:37:47.763Z,10.30
2022-08-09T05:40:40.075Z,9.60
2022-08-09T05:43:37.104Z,13.35
2022-08-09T05:46:25.509Z,14.27
2022-08-09T05:50:24.488Z,11.98
2022-08-09T05:52:30.813Z,10.73
2022-08-09T05:55:23.989Z,15.43
2022-08-09T05:58:11.779Z,14.30
2022-08-09T06:01:06.670Z,9.95
2022-08-09T06:03:58.907Z,8.18
2022-08-09T06:06:49.790Z,10.93
2022-08-09T06:10:02.094Z,16.70
2022-08-09T06:12:57.780Z,11.00
2022-08-09T06:16:04.952Z,10.73
2022-08-09T06:18:53.150Z,11.82
2022-08-09T06:21:51.554Z,13.45
2022-08-09T06:24:45.755Z,17.65
2022-08-09T06:27:42.379Z,8.63
2022-08-09T06:30:29.420Z,10.05
2022-08-09T06:33:40.008Z,12.27
2022-08-09T06:36:27.094Z,16.45
2022-08-09T06:39:14.873Z,12.82
2022-08-09T06:42:09.434Z,14.23
2022-08-09T06:46:04.348Z,13.38
2022-08-09T06:48:09.517Z,11.65
2022-08-09T06:51:05.990Z,11.85
2022-08-09T06:53:54.078Z,16.08
2022-08-09T06:56:45.618Z,14.05
2022-08-09T07:00:52.511Z,14.13
2022-08-09T07:02:45.510Z,14.60
2022-08-09T07:06:02.638Z,14.45
2022-08-09T07:08:42.526Z,15.00
2022-08-09T07:11:45.689Z,13.05
2022-08-09T07:14:39.476Z,11.52
2022-08-09T07:17:25.306Z,13.48
2022-08-09T07:20:12.723Z,19.70
2022-08-09T07:22:59.538Z,17.73
2022-08-09T07:25:52.576Z,10.45
2022-08-09T07:29:01.356Z,11.35
2022-08-09T07:31:56.483Z,18.55
2022-08-09T07:34:44.229Z,16.92
2022-08-09T07:37:43.308Z,12.18
2022-08-09T07:40:54.097Z,13.45
2022-08-09T07:43:41.019Z,8.57
2022-08-09T07:46:28.031Z,13.95
2022-08-09T07:49:17.109Z,12.10
2022-08-09T07:52:16.856Z,10.15
2022-08-09T07:55:08.934Z,12.90
2022-08-09T07:57:58.405Z,8.38
2022-08-09T08:00:49.296Z,8.50
2022-08-09T08:03:54.357Z,9.73
2022-08-09T08:06:56.000Z,11.88
2022-08-09T08:09:51.546Z,6.82
2022-08-09T08:12:45.207Z,7.68
2022-08-09T08:15:39.233Z,6.20
2022-08-09T08:18:28.083Z,7.32
2022-08-09T08:21:14.090Z,8.60
2022-08-09T08:24:12.117Z,7.30
2022-08-09T08:27:03.418Z,7.47
2022-08-09T08:29:52.533Z,7.53
2022-08-09T08:32:52.634Z,8.55
2022-08-09T08:35:58.552Z,8.32
2022-08-09T08:38:48.429Z,8.18
2022-08-09T08:41:41.783Z,8.63
2022-08-09T08:44:39.605Z,7.07
2022-08-09T08:47:28.278Z,5.70
2022-08-09T08:50:18.140Z,6.00
2022-08-09T08:53:05.465Z,9.40
2022-08-09T08:55:52.865Z,5.15
2022-08-09T08:58:46.367Z,6.35
2022-08-09T09:01:53.010Z,12.35
2022-08-09T09:04:48.130Z,5.32
2022-08-09T09:07:45.129Z,5.72
2022-08-09T09:10:32.315Z,7.07
2022-08-09T09:13:19.309Z,8.15
2022-08-09T09:16:11.295Z,4.18
2022-08-09T09:22:16.447Z,5.63
2022-08-09T09:26:01.612Z,5.53
2022-08-09T09:28:10.891Z,8.00
2022-08-09T09:31:02.047Z,6.55
2022-08-09T09:33:56.813Z,3.92
2022-08-09T09:36:51.009Z,6.55
2022-08-09T09:39:55.637Z,8.38
2022-08-09T09:42:46.254Z,4.57
2022-08-09T09:49:03.215Z,9.02
2022-08-09T09:51:51.356Z,5.65
2022-08-09T09:54:40.162Z,4.22
2022-08-09T09:58:03.949Z,3.75
2022-08-09T10:00:54.094Z,6.07
2022-08-09T10:03:57.063Z,8.90
2022-08-09T10:06:52.119Z,6.38
2022-08-09T10:09:54.617Z,7.60
2022-08-09T10:12:43.561Z,10.32
2022-08-09T10:16:09.508Z,5.03
2022-08-09T10:18:39.008Z,3.75
2022-08-09T10:21:50.045Z,5.38
2022-08-09T10:24:37.270Z,6.38
2022-08-09T10:27:28.495Z,8.18
2022-08-09T10:34:05.001Z,3.92
2022-08-09T10:36:31.787Z,7.95
2022-08-09T10:39:28.321Z,4.35
2022-08-09T10:42:17.203Z,3.92
2022-08-09T10:45:11.905Z,4.32
2022-08-09T10:48:30.447Z,8.15
2022-08-09T10:51:44.506Z,4.03
2022-08-09T10:54:33.788Z,4.45
2022-08-09T10:57:36.379Z,2.90
2022-08-09T11:01:10.876Z,5.32
2022-08-09T11:04:27.742Z,5.03
2022-08-09T11:07:19.161Z,4.63
2022-08-09T11:10:10.029Z,5.38
2022-08-09T11:13:50.511Z,6.00
2022-08-09T11:16:41.470Z,4.93
2022-08-09T11:20:07.804Z,8.20
2022-08-09T11:22:58.754Z,3.95
2022-08-09T11:25:48.250Z,4.10
2022-08-09T11:28:56.306Z,3.67
2022-08-09T11:31:49.850Z,2.72
2022-08-09T11:34:51.431Z,2.72
2022-08-09T11:37:41.566Z,5.97
2022-08-09T11:40:32.104Z,3.58
2022-08-09T11:43:32.255Z,5.53
2022-08-09T11:46:33.015Z,4.68
2022-08-09T11:49:28.063Z,7.63
2022-08-09T11:53:03.500Z,4.53
2022-08-09T11:55:52.856Z,3.65
2022-08-09T11:58:48.226Z,6.78
2022-08-09T12:02:17.753Z,5.38
2022-08-09T12:04:47.507Z,3.45
2022-08-09T12:07:42.207Z,4.97
2022-08-09T12:10:39.384Z,3.20
2022-08-09T12:14:07.452Z,3.83
2022-08-09T12:16:44.463Z,5.53
2022-08-09T12:19:35.925Z,4.03
2022-08-09T12:22:27.528Z,6.50
2022-08-09T12:25:35.930Z,11.57
2022-08-09T12:29:14.240Z,4.45
2022-08-09T12:31:58.997Z,8.75
2022-08-09T12:34:39.781Z,5.38
2022-08-09T12:37:50.600Z,5.80
2022-08-09T12:40:44.793Z,7.57
2022-08-09T12:44:07.032Z,5.45
2022-08-09T12:46:49.228Z,4.53
2022-08-09T12:49:37.161Z,4.32
2022-08-09T12:52:40.306Z,4.75
2022-08-09T12:56:13.681Z,3.40
2022-08-09T12:58:43.433Z,3.60
2022-08-09T13:01:29.911Z,2.50
2022-08-09T13:04:27.545Z,9.82
2022-08-09T13:07:49.988Z,3.65
2022-08-09T13:10:34.881Z,3.67
2022-08-09T13:14:01.046Z,7.95
2022-08-09T13:16:51.993Z,5.60
2022-08-09T13:20:06.964Z,2.95
2022-08-09T13:23:04.871Z,4.40
2022-08-09T13:25:56.151Z,3.17
2022-08-09T13:28:43.574Z,3.92
2022-08-09T13:32:15.902Z,3.90
2022-08-09T13:34:40.681Z,2.97
2022-08-09T13:37:52.465Z,3.85
2022-08-09T13:41:50.640Z,5.18
2022-08-09T13:43:41.707Z,6.70
2022-08-09T13:47:13.039Z,4.97
2022-08-09T13:49:39.518Z,5.78
2022-08-09T13:52:46.044Z,6.50
2022-08-09T13:55:33.881Z,4.22
2022-08-09T13:58:25.755Z,8.32
2022-08-09T14:01:55.710Z,3.63
2022-08-09T14:04:26.530Z,3.67
2022-08-09T14:07:16.779Z,6.07
2022-08-09T14:10:05.909Z,6.35
2022-08-09T14:12:54.239Z,7.28
2022-08-09T14:16:06.513Z,7.68
2022-08-09T14:18:51.633Z,4.43
2022-08-09T14:21:40.279Z,6.20
2022-08-09T14:24:32.576Z,6.10
2022-08-09T14:27:21.394Z,4.13
2022-08-09T14:30:36.911Z,4.38
2022-08-09T14:33:20.711Z,5.50
2022-08-09T14:36:20.206Z,6.88
2022-08-09T14:39:10.873Z,4.05
2022-08-09T14:42:01.036Z,7.07
2022-08-09T14:45:00.107Z,3.47
2022-08-09T14:47:59.399Z,5.70
2022-08-09T14:50:48.081Z,6.15
2022-08-09T14:53:38.989Z,6.20
2022-08-09T14:56:33.025Z,6.53
2022-08-09T14:59:22.782Z,4.95
2022-08-09T15:02:11.443Z,3.65
2022-08-09T15:05:01.000Z,6.03
2022-08-09T15:07:56.316Z,5.88
2022-08-09T15:11:00.643Z,4.60
2022-08-09T15:14:01.691Z,5.45
2022-08-09T15:16:53.560Z,7.22
2022-08-09T15:19:54.495Z,5.43
2022-08-09T15:22:49.670Z,9.73
2022-08-09T15:25:50.224Z,5.53
2022-08-09T15:28:36.895Z,4.57
2022-08-09T15:31:41.871Z,3.45
2022-08-09T15:34:32.599Z,5.07
2022-08-09T15:37:57.062Z,9.40
2022-08-09T15:40:53.171Z,5.40
2022-08-09T15:43:43.538Z,5.18
2022-08-09T15:46:35.301Z,7.28
2022-08-09T15:49:23.736Z,9.95
2022-08-09T15:52:11.919Z,5.15
2022-08-09T15:54:58.248Z,11.05
2022-08-09T15:57:51.172Z,6.25
2022-08-09T16:00:38.344Z,6.32
2022-08-09T16:03:29.521Z,4.45
2022-08-09T16:06:35.675Z,6.68
2022-08-09T16:09:32.532Z,3.55
2022-08-09T16:12:34.743Z,9.88
2022-08-09T16:16:11.679Z,6.30
2022-08-09T16:18:34.593Z,7.40
2022-08-09T16:21:25.838Z,6.82
2022-08-09T16:24:30.257Z,5.78
2022-08-09T16:27:20.608Z,8.20
2022-08-09T16:30:14.926Z,5.50
2022-08-09T16:33:08.838Z,8.68
2022-08-09T16:35:59.945Z,6.65
2022-08-09T16:38:51.614Z,9.18
2022-08-09T16:44:47.607Z,8.68
2022-08-09T16:48:43.399Z,10.48
2022-08-09T16:50:58.796Z,8.43
2022-08-09T16:56:55.299Z,6.23
2022-08-09T16:59:50.240Z,4.13
2022-08-09T17:02:46.693Z,5.03
2022-08-09T17:06:03.422Z,4.63
2022-08-09T17:08:59.866Z,5.68
2022-08-09T17:11:54.317Z,6.07
2022-08-09T17:14:46.352Z,5.93
2022-08-09T17:17:50.761Z,3.05
2022-08-09T17:20:44.268Z,5.15
2022-08-09T17:24:20.582Z,7.05
2022-08-09T17:26:53.384Z,2.97
2022-08-09T17:29:45.653Z,4.50
2022-08-09T17:32:37.959Z,9.80
2022-08-09T17:35:26.166Z,3.38
2022-08-09T17:38:32.611Z,6.15
2022-08-09T17:41:21.895Z,9.75
2022-08-09T17:44:42.569Z,9.20
2022-08-09T17:47:32.951Z,6.40
2022-08-09T17:50:37.759Z,14.20
2022-08-09T17:53:25.821Z,6.63
2022-08-09T17:56:12.451Z,6.00
2022-08-09T17:59:01.146Z,5.90
2022-08-09T18:02:07.536Z,5.20
2022-08-09T18:04:58.792Z,5.28
2022-08-09T18:07:48.770Z,4.18
2022-08-09T18:10:38.616Z,10.13
2022-08-09T18:13:43.054Z,8.88
2022-08-09T18:16:49.052Z,12.68
2022-08-09T18:20:55.070Z,10.25
2022-08-09T18:22:52.296Z,7.20
2022-08-09T18:25:52.682Z,11.13
2022-08-09T18:30:41.447Z,7.13
2022-08-09T18:31:55.063Z,6.15
2022-08-09T18:34:43.879Z,7.57
2022-08-09T18:37:48.020Z,10.80
2022-08-09T18:40:36.975Z,7.47
2022-08-09T18:43:24.235Z,8.27
2022-08-09T18:46:50.913Z,8.95
2022-08-09T18:49:26.605Z,12.20
2022-08-09T18:52:15.753Z,7.18
2022-08-09T18:55:03.502Z,7.05
2022-08-09T18:57:50.259Z,7.32
2022-08-09T19:00:43.346Z,16.10
2022-08-09T19:03:29.706Z,10.77
2022-08-09T19:06:38.612Z,8.95
2022-08-09T19:10:12.810Z,11.23
2022-08-09T19:12:31.992Z,10.55
2022-08-09T19:15:20.306Z,8.90
2022-08-09T19:18:16.934Z,12.65
2022-08-09T19:21:05.557Z,7.82
2022-08-09T19:24:33.205Z,8.00
2022-08-09T19:27:01.473Z,5.78
2022-08-09T19:30:24.715Z,12.88
2022-08-09T19:32:55.397Z,13.82
2022-08-09T19:35:56.464Z,10.85
2022-08-09T19:38:45.043Z,11.23
2022-08-09T19:41:37.259Z,12.05
2022-08-09T19:44:29.472Z,13.45
2022-08-09T19:47:15.972Z,11.05
2022-08-09T19:50:51.221Z,17.02
2022-08-09T19:53:20.907Z,9.52
2022-08-09T19:56:07.258Z,11.45
2022-08-09T19:59:39.312Z,7.85
2022-08-09T20:02:18.252Z,9.10
2022-08-09T20:05:18.161Z,10.18
2022-08-09T20:08:05.981Z,11.95
2022-08-09T20:10:52.302Z,10.95
2022-08-09T20:13:39.555Z,11.55
2022-08-09T20:16:33.706Z,9.82
2022-08-09T20:19:49.582Z,8.90
2022-08-09T20:22:35.754Z,14.57
2022-08-09T20:25:24.260Z,14.48
2022-08-09T20:28:12.897Z,10.82
2022-08-09T20:31:15.330Z,12.00
2022-08-09T20:34:02.177Z,15.25
2022-08-09T20:36:51.027Z,9.82
2022-08-09T20:40:15.014Z,12.00
2022-08-09T20:42:46.508Z,21.20
2022-08-09T20:45:59.592Z,10.52
2022-08-09T20:48:49.814Z,11.00
2022-08-09T20:51:40.798Z,8.45
2022-08-09T20:54:28.875Z,12.40
2022-08-09T20:57:15.401Z,9.55
2022-08-09T21:00:22.265Z,12.73
2022-08-09T21:03:12.852Z,15.07
2022-08-09T21:06:09.448Z,14.15
2022-08-09T21:09:24.948Z,9.85
2022-08-09T21:12:23.617Z,11.68
2022-08-09T21:15:23.576Z,20.73
2022-08-09T21:18:25.931Z,20.00
2022-08-09T21:21:17.026Z,18.30
2022-08-09T21:24:04.787Z,15.07
2022-08-09T21:26:51.983Z,13.25
2022-08-09T21:29:48.574Z,13.02
2022-08-09T21:32:36.939Z,15.63
2022-08-09T21:35:24.555Z,13.63
2022-08-09T21:38:14.928Z,10.27
2022-08-09T21:41:03.617Z,12.18
2022-08-09T21:43:56.536Z,15.68
2022-08-09T21:49:39.722Z,13.32
2022-08-09T21:52:29.470Z,12.88
2022-08-09T21:55:15.918Z,15.45
2022-08-09T21:58:03.264Z,10.77
2022-08-09T22:00:52.549Z,12.68
2022-08-09T22:06:58.959Z,14.05
2022-08-09T22:09:47.910Z,11.48
2022-08-09T22:12:35.641Z,13.30
2022-08-09T22:15:34.836Z,11.40
2022-08-09T22:18:24.069Z,12.60
2022-08-09T22:21:21.574Z,12.40
2022-08-09T22:24:08.286Z,8.93
2022-08-09T22:27:04.649Z,12.32
2022-08-09T22:29:50.368Z,12.48
2022-08-09T22:32:36.730Z,11.68
2022-08-09T22:36:01.272Z,10.00
2022-08-09T22:38:31.083Z,11.50
2022-08-09T22:41:18.363Z,9.73
2022-08-09T22:44:07.293Z,13.27
2022-08-09T22:48:10.693Z,11.30
2022-08-09T22:50:01.964Z,10.57
2022-08-09T22:52:49.113Z,9.85
2022-08-09T22:56:30.129Z,10.25
2022-08-09T22:58:47.345Z,11.60
2022-08-09T23:01:34.041Z,10.60
2022-08-09T23:04:20.326Z,9.93
2022-08-09T23:07:31.150Z,17.33
2022-08-09T23:10:31.670Z,11.48
2022-08-09T23:13:19.923Z,10.70
2022-08-09T23:16:07.634Z,10.52
2022-08-09T23:18:55.224Z,9.93
2022-08-09T23:21:41.304Z,12.25
2022-08-09T23:24:28.028Z,9.18
2022-08-09T23:27:13.954Z,10.63
2022-08-09T23:29:59.773Z,12.35
2022-08-09T23:32:45.920Z,10.57
2022-08-09T23:36:06.546Z,12.20
2022-08-09T23:38:49.106Z,11.23
2022-08-09T23:41:35.813Z,11.10
2022-08-09T23:44:22.804Z,10.82
2022-08-09T23:47:09.075Z,11.70
2022-08-09T23:49:55.248Z,9.93
2022-08-09T23:52:41.573Z,10.80
2022-08-09T23:55:31.080Z,9.43
2022-08-09T23:58:27.607Z,9.65
